createdAt,value
2022-11-12T00:02:27.797Z,101944.85
2022-11-12T00:06:16.484Z,101947.45
2022-11-12T00:10:03.920Z,101947.23
2022-11-12T00:13:50.729Z,101953.62
2022-11-12T00:17:40.003Z,101953.36
2022-11-12T00:21:25.729Z,101958.63
2022-11-12T00:25:12.161Z,101957.36
2022-11-12T00:28:58.549Z,101954.88
2022-11-12T00:32:45.488Z,101954.50
2022-11-12T00:36:30.904Z,101944.44
2022-11-12T00:40:17.272Z,101953.75
2022-11-12T00:44:04.050Z,101959.38
2022-11-12T00:47:52.547Z,101969.69
2022-11-12T00:51:38.760Z,101971.17
2022-11-12T00:55:26.362Z,101971.13
2022-11-12T00:59:14.840Z,101966.52
2022-11-12T01:03:01.435Z,101961.86
2022-11-12T01:06:50.865Z,101962.02
2022-11-12T01:10:38.585Z,101962.54
2022-11-12T01:14:27.856Z,101963.75
2022-11-12T01:18:17.375Z,101966.63
2022-11-12T01:22:06.273Z,101970.01
2022-11-12T01:25:55.892Z,101964.23
2022-11-12T01:29:44.365Z,101963.46
2022-11-12T01:33:36.179Z,101963.19
2022-11-12T01:37:24.443Z,101964.39
2022-11-12T01:41:37.204Z,101964.01
2022-11-12T01:45:23.316Z,101968.45
2022-11-12T01:49:15.566Z,101965.64
2022-11-12T01:53:06.486Z,101966.92
2022-11-12T01:56:54.278Z,101964.42
2022-11-12T02:00:41.911Z,101968.60
2022-11-12T02:04:29.756Z,101973.20
2022-11-12T02:08:17.450Z,101965.75
2022-11-12T02:12:04.059Z,101969.31
2022-11-12T02:15:49.901Z,101961.67
2022-11-12T02:19:40.350Z,101969.92
2022-11-12T02:23:26.348Z,101975.17
2022-11-12T02:27:12.865Z,101976.34
2022-11-12T02:30:58.399Z,101977.79
2022-11-12T02:34:44.446Z,101982.11
2022-11-12T02:38:29.832Z,101983.77
2022-11-12T02:42:15.837Z,101985.61
2022-11-12T02:46:01.837Z,101993.73
2022-11-12T02:49:47.978Z,101996.61
2022-11-12T02:53:37.121Z,101997.02
2022-11-12T02:57:23.653Z,101994.36
2022-11-12T03:01:09.639Z,101998.70
2022-11-12T03:04:55.776Z,101999.92
2022-11-12T03:08:41.565Z,101999.73
2022-11-12T03:12:27.108Z,101996.88
2022-11-12T03:16:13.303Z,102002.37
2022-11-12T03:19:59.040Z,102007.61
2022-11-12T03:23:45.665Z,102006.81
2022-11-12T03:27:31.729Z,101998.77
2022-11-12T03:31:29.747Z,101993.36
2022-11-12T03:35:19.066Z,102000.02
2022-11-12T03:39:05.374Z,101991.84
2022-11-12T03:42:52.165Z,101991.56
2022-11-12T03:46:43.040Z,101991.61
2022-11-12T03:50:31.402Z,101989.05
2022-11-12T03:54:17.966Z,101983.50
2022-11-12T03:58:03.849Z,101992.92
2022-11-12T04:01:49.897Z,101994.44
2022-11-12T04:05:53.446Z,102000.64
2022-11-12T04:09:38.864Z,101999.44
2022-11-12T04:13:30.760Z,101997.39
2022-11-12T04:17:34.033Z,101993.95
2022-11-12T04:21:37.340Z,101993.83
2022-11-12T04:25:49.085Z,101991.49
2022-11-12T04:29:52.491Z,101988.30
2022-11-12T04:33:38.310Z,101987.48
2022-11-12T04:37:25.611Z,101986.08
2022-11-12T04:41:29.822Z,101984.16
2022-11-12T04:45:15.905Z,101992.08
2022-11-12T04:49:01.865Z,101990.23
2022-11-12T04:52:48.387Z,101987.20
2022-11-12T04:56:34.077Z,101984.66
2022-11-12T05:00:21.113Z,101980.42
2022-11-12T05:04:07.635Z,101978.15
2022-11-12T05:07:53.300Z,101980.23
2022-11-12T05:11:39.380Z,101977.29
2022-11-12T05:15:25.600Z,101979.88
2022-11-12T05:19:11.313Z,101977.48
2022-11-12T05:23:06.659Z,101979.65
2022-11-12T05:26:54.294Z,101984.67
2022-11-12T05:30:39.929Z,101979.92
2022-11-12T05:34:26.906Z,101981.60
2022-11-12T05:38:13.339Z,101984.92
2022-11-12T05:42:12.464Z,101983.10
2022-11-12T05:45:59.155Z,101991.76
2022-11-12T05:49:44.864Z,101998.10
2022-11-12T05:53:30.633Z,101997.81
2022-11-12T05:57:18.924Z,101998.40
2022-11-12T06:01:05.480Z,102005.63
2022-11-12T06:04:51.596Z,102007.42
2022-11-12T06:08:37.223Z,102000.61
2022-11-12T06:12:22.527Z,102005.74
2022-11-12T06:16:11.860Z,102008.52
2022-11-12T06:19:57.610Z,102012.17
2022-11-12T06:23:43.406Z,102011.59
2022-11-12T06:27:29.311Z,102013.79
2022-11-12T06:31:15.341Z,102018.45
2022-11-12T06:35:01.302Z,102021.16
2022-11-12T06:38:47.503Z,102021.73
2022-11-12T06:42:33.504Z,102026.43
2022-11-12T06:46:19.810Z,102035.25
2022-11-12T06:50:05.740Z,102043.18
2022-11-12T06:53:52.556Z,102044.82
2022-11-12T06:57:38.584Z,102043.45
2022-11-12T07:01:24.922Z,102044.20
2022-11-12T07:05:11.166Z,102047.83
2022-11-12T07:08:58.324Z,102050.14
2022-11-12T07:12:44.724Z,102051.05
2022-11-12T07:16:32.831Z,102061.23
2022-11-12T07:20:19.358Z,102062.53
2022-11-12T07:24:05.478Z,102065.80
2022-11-12T07:27:51.356Z,102064.50
2022-11-12T07:31:38.073Z,102070.89
2022-11-12T07:35:23.507Z,102074.80
2022-11-12T07:39:09.148Z,102082.15
2022-11-12T07:42:54.849Z,102082.60
2022-11-12T07:50:43.540Z,102073.08
2022-11-12T07:54:32.264Z,102070.30
2022-11-12T07:58:17.735Z,102076.16
2022-11-12T08:02:06.084Z,102075.17
2022-11-12T08:05:51.906Z,102076.98
2022-11-12T08:09:37.849Z,102082.14
2022-11-12T08:13:23.286Z,102078.67
2022-11-12T08:17:08.953Z,102084.39
2022-11-12T08:21:00.353Z,102087.46
2022-11-12T08:24:46.227Z,102086.50
2022-11-12T08:28:33.656Z,102090.88
2022-11-12T08:32:19.758Z,102085.92
2022-11-12T08:36:08.622Z,102095.02
2022-11-12T08:39:54.583Z,102097.77
2022-11-12T08:43:43.241Z,102094.89
2022-11-12T08:47:28.836Z,102097.70
2022-11-12T08:51:14.984Z,102100.84
2022-11-12T08:55:00.759Z,102109.04
2022-11-12T08:58:46.548Z,102121.48
2022-11-12T09:02:32.151Z,102123.66
2022-11-12T09:06:18.087Z,102129.70
2022-11-12T09:10:03.886Z,102133.90
2022-11-12T09:13:51.647Z,102131.91
2022-11-12T09:17:37.682Z,102135.58
2022-11-12T09:21:25.156Z,102143.42
2022-11-12T09:25:12.025Z,102143.57
2022-11-12T09:28:57.889Z,102142.67
2022-11-12T09:32:43.683Z,102143.48
2022-11-12T09:36:29.734Z,102145.13
2022-11-12T09:40:21.358Z,102143.11
2022-11-12T09:44:10.456Z,102146.68
2022-11-12T09:48:01.700Z,102147.90
2022-11-12T09:51:52.449Z,102148.27
2022-11-12T09:55:41.738Z,102141.47
2022-11-12T09:59:31.263Z,102143.19
2022-11-12T10:03:32.023Z,102140.54
2022-11-12T10:07:29.527Z,102134.36
2022-11-12T10:11:52.663Z,102131.14
2022-11-12T10:16:08.799Z,102135.78
2022-11-12T10:20:15.750Z,102133.31
2022-11-12T10:24:03.278Z,102127.92
2022-11-12T10:27:49.962Z,102134.27
2022-11-12T10:31:36.559Z,102131.31
2022-11-12T10:35:24.649Z,102133.66
2022-11-12T10:39:11.659Z,102130.17
2022-11-12T10:43:03.017Z,102130.09
2022-11-12T10:46:51.454Z,102124.17
2022-11-12T10:50:43.665Z,102118.08
2022-11-12T10:54:42.869Z,102117.39
2022-11-12T10:58:32.376Z,102114.89
2022-11-12T11:02:21.771Z,102113.73
2022-11-12T11:06:21.196Z,102111.96
2022-11-12T11:10:23.643Z,102108.48
2022-11-12T11:14:28.828Z,102110.49
2022-11-12T11:18:15.951Z,102101.92
2022-11-12T11:22:17.371Z,102103.31
2022-11-12T11:26:18.168Z,102105.52
2022-11-12T11:30:20.749Z,102099.98
2022-11-12T11:34:22.409Z,102095.20
2022-11-12T11:38:23.692Z,102093.15
2022-11-12T11:42:27.239Z,102101.33
2022-11-12T11:46:33.711Z,102100.72
2022-11-12T11:50:29.588Z,102095.05
2022-11-12T11:54:41.446Z,102094.64
2022-11-12T11:58:52.982Z,102092.29
2022-11-12T12:03:14.679Z,102094.20
2022-11-12T12:07:17.139Z,102098.44
2022-11-12T12:11:09.533Z,102101.79
2022-11-12T12:15:20.726Z,102096.50
2022-11-12T12:19:16.435Z,102100.73
2022-11-12T12:23:05.037Z,102104.37
2022-11-12T12:26:55.506Z,102106.18
2022-11-12T12:30:47.134Z,102102.41
2022-11-12T12:34:39.164Z,102106.06
2022-11-12T12:38:32.172Z,102112.58
2022-11-12T12:42:22.305Z,102113.98
2022-11-12T12:46:12.981Z,102117.42
2022-11-12T12:50:02.289Z,102114.42
2022-11-12T12:53:48.080Z,102120.00
2022-11-12T12:57:37.968Z,102121.17
2022-11-12T13:01:35.645Z,102121.31
2022-11-12T13:05:34.337Z,102122.92
2022-11-12T13:09:28.734Z,102124.02
2022-11-12T13:13:46.139Z,102125.01
2022-11-12T13:17:48.879Z,102128.45
2022-11-12T13:21:38.958Z,102123.95
2022-11-12T13:25:31.960Z,102133.50
2022-11-12T13:29:41.216Z,102128.77
2022-11-12T13:33:35.593Z,102131.39
2022-11-12T13:37:25.967Z,102127.49
2022-11-12T13:41:19.765Z,102130.30
2022-11-12T13:45:11.399Z,102124.90
2022-11-12T13:49:02.028Z,102126.05
2022-11-12T13:52:49.112Z,102130.74
2022-11-12T13:56:38.011Z,102129.87
2022-11-12T14:00:27.440Z,102134.74
2022-11-12T14:04:18.584Z,102132.87
2022-11-12T14:08:21.087Z,102129.49
2022-11-12T14:12:22.944Z,102131.72
2022-11-12T14:16:24.585Z,102129.89
2022-11-12T14:20:31.509Z,102128.08
2022-11-12T14:24:20.855Z,102125.00
2022-11-12T14:28:07.402Z,102126.10
2022-11-12T14:32:04.428Z,102132.06
2022-11-12T14:35:51.777Z,102128.91
2022-11-12T14:39:44.444Z,102134.89
2022-11-12T14:43:38.424Z,102138.27
2022-11-12T14:47:25.406Z,102140.10
2022-11-12T14:51:15.513Z,102134.17
2022-11-12T14:55:07.937Z,102131.39
2022-11-12T14:58:55.633Z,102136.11
2022-11-12T15:02:55.709Z,102139.86
2022-11-12T15:06:43.991Z,102146.50
2022-11-12T15:10:36.948Z,102144.64
2022-11-12T15:14:26.959Z,102146.58
2022-11-12T15:18:19.699Z,102143.49
2022-11-12T15:22:07.055Z,102147.84
2022-11-12T15:26:02.948Z,102147.25
2022-11-12T15:29:48.952Z,102146.98
2022-11-12T15:33:34.978Z,102152.77
2022-11-12T15:37:29.331Z,102147.16
2022-11-12T15:41:26.374Z,102152.10
2022-11-12T15:45:19.856Z,102149.77
2022-11-12T15:49:13.123Z,102158.18
2022-11-12T15:52:59.328Z,102161.09
2022-11-12T15:56:45.383Z,102161.63
2022-11-12T16:00:36.518Z,102160.85
2022-11-12T16:05:03.257Z,102161.27
2022-11-12T16:08:49.031Z,102167.70
2022-11-12T16:12:34.865Z,102165.91
2022-11-12T16:16:21.120Z,102164.67
2022-11-12T16:20:13.691Z,102168.27
2022-11-12T16:23:59.374Z,102165.89
2022-11-12T16:27:50.145Z,102170.67
2022-11-12T16:31:38.682Z,102173.63
2022-11-12T16:35:25.211Z,102175.86
2022-11-12T16:39:13.850Z,102171.63
2022-11-12T16:43:00.049Z,102169.59
2022-11-12T16:46:47.964Z,102171.11
2022-11-12T16:50:33.746Z,102166.66
2022-11-12T16:54:19.480Z,102164.69
2022-11-12T16:58:05.589Z,102170.63
2022-11-12T17:01:52.133Z,102168.47
2022-11-12T17:05:40.817Z,102170.87
2022-11-12T17:09:26.556Z,102170.86
2022-11-12T17:13:16.205Z,102165.13
2022-11-12T17:17:02.251Z,102167.20
2022-11-12T17:20:51.220Z,102163.34
2022-11-12T17:24:37.600Z,102167.22
2022-11-12T17:28:24.600Z,102164.44
2022-11-12T17:32:10.669Z,102167.54
2022-11-12T17:36:01.982Z,102162.33
2022-11-12T17:39:49.033Z,102163.80
2022-11-12T17:43:37.957Z,102163.98
2022-11-12T17:47:24.776Z,102163.77
2022-11-12T17:51:13.688Z,102157.89
2022-11-12T17:54:59.785Z,102162.58
2022-11-12T17:58:47.557Z,102155.63
2022-11-12T18:02:34.620Z,102151.20
2022-11-12T18:06:22.805Z,102164.74
2022-11-12T18:10:09.271Z,102159.74
2022-11-12T18:13:55.230Z,102159.24
2022-11-12T18:17:41.127Z,102170.27
2022-11-12T18:21:28.557Z,102153.29
2022-11-12T18:25:15.194Z,102164.94
2022-11-12T18:29:03.408Z,102157.93
2022-11-12T18:32:50.963Z,102161.17
2022-11-12T18:36:37.585Z,102173.47
2022-11-12T18:40:25.321Z,102162.52
2022-11-12T18:44:12.039Z,102167.60
2022-11-12T18:47:58.033Z,102167.31
2022-11-12T18:51:44.643Z,102172.73
2022-11-12T18:55:32.479Z,102179.98
2022-11-12T18:59:20.032Z,102176.07
2022-11-12T19:03:05.703Z,102193.73
2022-11-12T19:06:51.890Z,102197.02
2022-11-12T19:10:42.214Z,102200.58
2022-11-12T19:14:31.620Z,102194.74
2022-11-12T19:18:17.915Z,102200.77
2022-11-12T19:22:04.122Z,102207.77
2022-11-12T19:25:53.917Z,102199.86
2022-11-12T19:29:46.165Z,102202.08
2022-11-12T19:33:32.118Z,102200.55
2022-11-12T19:37:33.027Z,102204.67
2022-11-12T19:41:20.393Z,102206.66
2022-11-12T19:45:07.697Z,102204.19
2022-11-12T19:48:53.492Z,102205.00
2022-11-12T19:52:41.433Z,102201.63
2022-11-12T19:56:29.649Z,102202.27
2022-11-12T20:00:19.526Z,102200.42
2022-11-12T20:04:06.020Z,102203.09
2022-11-12T20:07:53.585Z,102196.61
2022-11-12T20:11:39.357Z,102200.25
2022-11-12T20:15:26.080Z,102204.31
2022-11-12T20:19:12.474Z,102198.01
2022-11-12T20:23:02.264Z,102197.61
2022-11-12T20:26:48.879Z,102195.05
2022-11-12T20:30:35.308Z,102198.13
2022-11-12T20:34:23.901Z,102200.09
2022-11-12T20:38:09.619Z,102209.23
2022-11-12T20:41:56.540Z,102212.86
2022-11-12T20:45:42.124Z,102207.02
2022-11-12T20:49:31.476Z,102205.77
2022-11-12T20:53:18.866Z,102209.98
2022-11-12T20:57:05.032Z,102207.93
2022-11-12T21:00:52.741Z,102210.05
2022-11-12T21:04:38.888Z,102198.91
2022-11-12T21:08:26.436Z,102206.27
2022-11-12T21:12:12.875Z,102197.19
2022-11-12T21:16:00.461Z,102193.96
2022-11-12T21:19:46.249Z,102204.95
2022-11-12T21:23:34.407Z,102208.02
2022-11-12T21:27:22.032Z,102203.18
2022-11-12T21:31:11.993Z,102205.86
2022-11-12T21:34:57.660Z,102205.94
2022-11-12T21:38:44.170Z,102208.20
2022-11-12T21:42:30.260Z,102204.80
2022-11-12T21:46:21.328Z,102217.15
2022-11-12T21:50:10.174Z,102211.13
2022-11-12T21:54:00.049Z,102214.17
2022-11-12T21:57:55.383Z,102212.32
2022-11-12T22:01:44.171Z,102205.91
2022-11-12T22:05:32.343Z,102223.63
2022-11-12T22:09:20.164Z,102219.88
2022-11-12T22:13:26.503Z,102217.84
2022-11-12T22:17:16.551Z,102220.38
2022-11-12T22:21:08.678Z,102212.30
2022-11-12T22:24:55.073Z,102208.27
2022-11-12T22:28:41.244Z,102208.89
2022-11-12T22:32:28.513Z,102206.49
2022-11-12T22:36:18.266Z,102200.48
2022-11-12T22:40:09.131Z,102202.89
2022-11-12T22:44:02.618Z,102205.98
2022-11-12T22:47:49.882Z,102198.76
2022-11-12T22:51:41.943Z,102198.95
2022-11-12T22:55:33.072Z,102193.63
2022-11-12T22:59:19.117Z,102194.87
2022-11-12T23:03:09.764Z,102194.68
2022-11-12T23:06:56.932Z,102195.44
2022-11-12T23:10:45.801Z,102196.35
2022-11-12T23:14:32.328Z,102193.11
2022-11-12T23:18:18.425Z,102196.81
2022-11-12T23:22:07.811Z,102198.08
2022-11-12T23:25:53.649Z,102193.36
2022-11-12T23:29:41.749Z,102186.79
2022-11-12T23:33:28.300Z,102187.27
2022-11-12T23:37:14.602Z,102179.14
2022-11-12T23:41:03.682Z,102177.06
2022-11-12T23:44:49.941Z,102179.06
2022-11-12T23:48:36.080Z,102176.73
2022-11-12T23:52:24.195Z,102175.98
2022-11-12T23:56:11.892Z,102176.05
